In Rescue
 
Open Full Screen Window  High Contrast Mode
Wind Gusting 00 knots
07
March 29, 2020 6:59 PM CDT
Weather Information
Wind Direction
  330 °
Wind Speed
  07 kt (8 mph)
Wind Gust
  00 kt (0 mph)
Altimeter
29.96 in
Visibility
10 SM
Temperature
11° C
52° F
Dewpoint
-08° C
18° F
Humidity
26%
1hr Rain Fall
00.00 in.
24hr Rain Fall
00.93 in.
Sky Condition
Clear
VFR

METAR KLXL 292359Z AUTO 33007KT 10SM CLR 11/M08 A2996 RMK AO2

FAA Disclaimer: The data displayed is for advisory purposes only and is not to be used for flight planning or operations.